Hlavní strana
METAR-TAF:

METAR-TAF

Letiště :

Apartadó, Kolumbie

zeměpisná šířka: 07-49N, zeměpisná délka: 076-42W, výška: 20 m

Aktuální stav počasí

Zpráva byla vytvořena před 59 minutami, v 13:00 UTC
Bezvětří
Teplota 28°C
Vlhkost vzduchu 89%
Tlak 1009 hPa
Viditelnost: 9000 m
Polojasno ve výšce 1500 ft

METAR: SKLC 261300Z 00000KT 9000 SCT015 28/26 A2981 RMK HZ

Čas: 08:59 (13:59 UTC)


TAF: chybějící

Stav a předpovědi počasí z více než 4 000 letišť (zprávy METAR a TAF).

Červené a žluté tečky na mapě představují dostupné meteorologické stanice.

Když kurzor umístíte na tečku, zobrazí se název stanice.

Pak kliknutím zobrazíte stav a předpověď počasí.

Chcete-li změnit mapu, kliknutím na zelené tlačítko se znaménkem +mapu přiblížíte, kliknutím na zelené tlačítko se znaménkem – mapu oddálíte a kliknutím na zelené šipky přejdete na sousední mapy.


METAR-TAF: